sensor_id;sensor_type;location;lat;lon;timestamp;P1;durP1;ratioP1;P2;durP2;ratioP2
41921;SDS011;27609;51.002;5.354;2022-08-03T00:02:25;9.68;;;2.25;;
41921;SDS011;27609;51.002;5.354;2022-08-03T00:04:51;9.13;;;2.47;;
41921;SDS011;27609;51.002;5.354;2022-08-03T00:07:17;5.40;;;2.15;;
41921;SDS011;27609;51.002;5.354;2022-08-03T00:09:43;4.80;;;2.38;;
41921;SDS011;27609;51.002;5.354;2022-08-03T00:12:08;4.82;;;2.00;;
41921;SDS011;27609;51.002;5.354;2022-08-03T00:14:34;10.93;;;2.40;;
41921;SDS011;27609;51.002;5.354;2022-08-03T00:17:00;5.15;;;2.03;;
41921;SDS011;27609;51.002;5.354;2022-08-03T00:19:26;4.65;;;1.92;;
41921;SDS011;27609;51.002;5.354;2022-08-03T00:21:52;5.07;;;2.20;;
41921;SDS011;27609;51.002;5.354;2022-08-03T00:24:17;4.55;;;2.47;;
41921;SDS011;27609;51.002;5.354;2022-08-03T00:26:43;4.90;;;2.08;;
41921;SDS011;27609;51.002;5.354;2022-08-03T00:29:09;5.63;;;2.00;;
41921;SDS011;27609;51.002;5.354;2022-08-03T00:31:35;6.25;;;2.20;;
41921;SDS011;27609;51.002;5.354;2022-08-03T00:34:01;7.18;;;1.75;;
41921;SDS011;27609;51.002;5.354;2022-08-03T00:36:26;3.20;;;1.85;;
41921;SDS011;27609;51.002;5.354;2022-08-03T00:38:52;5.65;;;2.40;;
41921;SDS011;27609;51.002;5.354;2022-08-03T00:41:18;3.83;;;2.10;;
41921;SDS011;27609;51.002;5.354;2022-08-03T00:43:44;3.90;;;2.25;;
41921;SDS011;27609;51.002;5.354;2022-08-03T00:46:11;2.67;;;2.10;;
41921;SDS011;27609;51.002;5.354;2022-08-03T00:48:37;6.15;;;2.40;;
41921;SDS011;27609;51.002;5.354;2022-08-03T00:51:03;5.90;;;2.70;;
41921;SDS011;27609;51.002;5.354;2022-08-03T00:53:29;3.83;;;2.15;;
41921;SDS011;27609;51.002;5.354;2022-08-03T00:55:55;6.53;;;2.45;;
41921;SDS011;27609;51.002;5.354;2022-08-03T00:58:21;5.00;;;2.38;;
41921;SDS011;27609;51.002;5.354;2022-08-03T01:00:48;3.25;;;2.22;;
41921;SDS011;27609;51.002;5.354;2022-08-03T01:03:14;4.72;;;2.35;;
41921;SDS011;27609;51.002;5.354;2022-08-03T01:05:55;4.85;;;2.83;;
41921;SDS011;27609;51.002;5.354;2022-08-03T01:11:24;7.93;;;2.42;;
41921;SDS011;27609;51.002;5.354;2022-08-03T01:14:00;4.38;;;2.58;;
41921;SDS011;27609;51.002;5.354;2022-08-03T01:22:06;6.65;;;2.30;;
41921;SDS011;27609;51.002;5.354;2022-08-03T01:25:02;6.93;;;2.58;;
41921;SDS011;27609;51.002;5.354;2022-08-03T01:30:38;7.65;;;2.53;;
41921;SDS011;27609;51.002;5.354;2022-08-03T01:33:09;6.93;;;2.58;;
41921;SDS011;27609;51.002;5.354;2022-08-03T01:38:33;4.72;;;2.05;;
41921;SDS011;27609;51.002;5.354;2022-08-03T01:41:12;8.45;;;2.45;;
41921;SDS011;27609;51.002;5.354;2022-08-03T01:43:41;3.45;;;2.22;;
41921;SDS011;27609;51.002;5.354;2022-08-03T01:46:11;5.65;;;2.47;;
41921;SDS011;27609;51.002;5.354;2022-08-03T01:48:38;4.30;;;2.72;;
41921;SDS011;27609;51.002;5.354;2022-08-03T01:51:08;5.43;;;2.60;;
41921;SDS011;27609;51.002;5.354;2022-08-03T01:53:36;4.70;;;2.28;;
41921;SDS011;27609;51.002;5.354;2022-08-03T01:56:08;6.07;;;2.70;;
41921;SDS011;27609;51.002;5.354;2022-08-03T01:58:35;4.63;;;2.50;;
41921;SDS011;27609;51.002;5.354;2022-08-03T02:01:02;5.53;;;2.50;;
41921;SDS011;27609;51.002;5.354;2022-08-03T02:03:31;8.55;;;2.70;;
41921;SDS011;27609;51.002;5.354;2022-08-03T02:06:00;4.25;;;2.50;;
41921;SDS011;27609;51.002;5.354;2022-08-03T02:08:26;2.53;;;2.25;;
41921;SDS011;27609;51.002;5.354;2022-08-03T02:10:55;5.78;;;2.75;;
41921;SDS011;27609;51.002;5.354;2022-08-03T02:13:22;6.35;;;2.65;;
41921;SDS011;27609;51.002;5.354;2022-08-03T02:15:48;7.20;;;3.15;;
41921;SDS011;27609;51.002;5.354;2022-08-03T02:18:16;6.32;;;2.80;;
41921;SDS011;27609;51.002;5.354;2022-08-03T02:20:43;4.30;;;2.20;;
41921;SDS011;27609;51.002;5.354;2022-08-03T02:23:10;5.50;;;2.75;;
41921;SDS011;27609;51.002;5.354;2022-08-03T02:25:43;11.38;;;3.03;;
41921;SDS011;27609;51.002;5.354;2022-08-03T02:28:14;5.57;;;2.70;;
41921;SDS011;27609;51.002;5.354;2022-08-03T02:30:44;10.45;;;2.58;;
41921;SDS011;27609;51.002;5.354;2022-08-03T02:33:16;8.23;;;2.63;;
41921;SDS011;27609;51.002;5.354;2022-08-03T02:35:46;3.45;;;2.40;;
41921;SDS011;27609;51.002;5.354;2022-08-03T02:38:13;6.40;;;3.15;;
41921;SDS011;27609;51.002;5.354;2022-08-03T02:40:44;5.00;;;2.28;;
41921;SDS011;27609;51.002;5.354;2022-08-03T02:43:11;2.50;;;2.00;;
41921;SDS011;27609;51.002;5.354;2022-08-03T02:48:08;3.78;;;2.28;;
41921;SDS011;27609;51.002;5.354;2022-08-03T02:50:36;8.48;;;2.83;;
41921;SDS011;27609;51.002;5.354;2022-08-03T02:53:03;3.45;;;2.47;;
41921;SDS011;27609;51.002;5.354;2022-08-03T02:55:31;3.58;;;2.50;;
41921;SDS011;27609;51.002;5.354;2022-08-03T02:57:59;6.88;;;2.22;;
41921;SDS011;27609;51.002;5.354;2022-08-03T03:00:26;5.07;;;2.70;;
41921;SDS011;27609;51.002;5.354;2022-08-03T03:02:54;4.50;;;2.90;;
41921;SDS011;27609;51.002;5.354;2022-08-03T03:05:22;6.57;;;2.80;;
41921;SDS011;27609;51.002;5.354;2022-08-03T03:07:48;6.95;;;2.90;;
41921;SDS011;27609;51.002;5.354;2022-08-03T03:10:14;6.32;;;3.00;;
41921;SDS011;27609;51.002;5.354;2022-08-03T03:12:40;8.45;;;3.15;;
41921;SDS011;27609;51.002;5.354;2022-08-03T03:15:07;5.07;;;2.33;;
41921;SDS011;27609;51.002;5.354;2022-08-03T03:17:33;7.30;;;2.55;;
41921;SDS011;27609;51.002;5.354;2022-08-03T03:20:01;4.10;;;2.70;;
41921;SDS011;27609;51.002;5.354;2022-08-03T03:22:27;6.03;;;3.03;;
41921;SDS011;27609;51.002;5.354;2022-08-03T03:24:54;6.72;;;2.88;;
41921;SDS011;27609;51.002;5.354;2022-08-03T03:27:20;6.30;;;2.33;;
41921;SDS011;27609;51.002;5.354;2022-08-03T03:29:47;3.92;;;2.85;;
41921;SDS011;27609;51.002;5.354;2022-08-03T03:32:13;7.65;;;2.83;;
41921;SDS011;27609;51.002;5.354;2022-08-03T03:34:39;5.65;;;2.80;;
41921;SDS011;27609;51.002;5.354;2022-08-03T03:37:06;3.60;;;2.75;;
41921;SDS011;27609;51.002;5.354;2022-08-03T03:39:32;12.52;;;3.50;;
41921;SDS011;27609;51.002;5.354;2022-08-03T03:42:00;3.20;;;2.72;;
41921;SDS011;27609;51.002;5.354;2022-08-03T03:44:27;5.55;;;2.58;;
41921;SDS011;27609;51.002;5.354;2022-08-03T03:46:58;5.13;;;2.65;;
41921;SDS011;27609;51.002;5.354;2022-08-03T03:49:24;4.28;;;2.88;;
41921;SDS011;27609;51.002;5.354;2022-08-03T03:51:53;4.97;;;3.25;;
41921;SDS011;27609;51.002;5.354;2022-08-03T03:54:20;8.38;;;3.70;;
41921;SDS011;27609;51.002;5.354;2022-08-03T03:56:45;5.50;;;2.92;;
41921;SDS011;27609;51.002;5.354;2022-08-03T03:59:11;3.15;;;2.83;;
41921;SDS011;27609;51.002;5.354;2022-08-03T04:01:37;11.57;;;3.53;;
41921;SDS011;27609;51.002;5.354;2022-08-03T04:04:05;11.98;;;3.30;;
41921;SDS011;27609;51.002;5.354;2022-08-03T04:06:49;9.32;;;3.55;;
41921;SDS011;27609;51.002;5.354;2022-08-03T04:09:37;3.75;;;2.72;;
41921;SDS011;27609;51.002;5.354;2022-08-03T04:12:25;8.50;;;3.05;;
41921;SDS011;27609;51.002;5.354;2022-08-03T04:14:52;3.30;;;2.35;;
41921;SDS011;27609;51.002;5.354;2022-08-03T04:17:22;5.93;;;2.90;;
41921;SDS011;27609;51.002;5.354;2022-08-03T04:22:19;8.52;;;3.75;;
41921;SDS011;27609;51.002;5.354;2022-08-03T04:24:48;5.55;;;3.10;;
41921;SDS011;27609;51.002;5.354;2022-08-03T04:27:20;4.83;;;3.40;;
41921;SDS011;27609;51.002;5.354;2022-08-03T04:29:50;3.40;;;3.10;;
41921;SDS011;27609;51.002;5.354;2022-08-03T04:32:18;7.25;;;3.17;;
41921;SDS011;27609;51.002;5.354;2022-08-03T04:34:47;4.20;;;2.33;;
41921;SDS011;27609;51.002;5.354;2022-08-03T04:37:23;7.88;;;3.33;;
41921;SDS011;27609;51.002;5.354;2022-08-03T04:39:51;3.95;;;2.75;;
41921;SDS011;27609;51.002;5.354;2022-08-03T04:42:18;4.72;;;2.78;;
41921;SDS011;27609;51.002;5.354;2022-08-03T04:44:46;10.57;;;3.15;;
41921;SDS011;27609;51.002;5.354;2022-08-03T04:47:13;6.88;;;2.60;;
41921;SDS011;27609;51.002;5.354;2022-08-03T04:49:39;6.90;;;2.53;;
41921;SDS011;27609;51.002;5.354;2022-08-03T04:52:08;9.73;;;3.15;;
41921;SDS011;27609;51.002;5.354;2022-08-03T04:54:44;9.20;;;3.45;;
41921;SDS011;27609;51.002;5.354;2022-08-03T04:57:10;8.68;;;3.08;;
41921;SDS011;27609;51.002;5.354;2022-08-03T04:59:36;8.50;;;2.95;;
41921;SDS011;27609;51.002;5.354;2022-08-03T05:02:02;10.90;;;3.33;;
41921;SDS011;27609;51.002;5.354;2022-08-03T05:04:27;4.82;;;3.30;;
41921;SDS011;27609;51.002;5.354;2022-08-03T05:06:53;4.53;;;2.65;;
41921;SDS011;27609;51.002;5.354;2022-08-03T05:09:19;6.38;;;2.92;;
41921;SDS011;27609;51.002;5.354;2022-08-03T05:11:45;6.20;;;2.88;;
41921;SDS011;27609;51.002;5.354;2022-08-03T05:14:10;4.28;;;3.00;;
41921;SDS011;27609;51.002;5.354;2022-08-03T05:16:36;6.00;;;3.35;;
41921;SDS011;27609;51.002;5.354;2022-08-03T05:19:01;11.25;;;3.45;;
41921;SDS011;27609;51.002;5.354;2022-08-03T05:21:27;9.07;;;3.10;;
41921;SDS011;27609;51.002;5.354;2022-08-03T05:23:53;3.95;;;3.08;;
41921;SDS011;27609;51.002;5.354;2022-08-03T05:26:18;6.80;;;2.88;;
41921;SDS011;27609;51.002;5.354;2022-08-03T05:28:44;8.68;;;2.72;;
41921;SDS011;27609;51.002;5.354;2022-08-03T05:31:10;6.47;;;3.03;;
41921;SDS011;27609;51.002;5.354;2022-08-03T05:33:37;6.10;;;3.40;;
41921;SDS011;27609;51.002;5.354;2022-08-03T05:36:03;4.97;;;2.88;;
41921;SDS011;27609;51.002;5.354;2022-08-03T05:38:30;10.93;;;3.08;;
41921;SDS011;27609;51.002;5.354;2022-08-03T05:40:56;8.10;;;2.88;;
41921;SDS011;27609;51.002;5.354;2022-08-03T05:43:22;7.55;;;2.70;;
41921;SDS011;27609;51.002;5.354;2022-08-03T05:45:47;5.93;;;2.58;;
41921;SDS011;27609;51.002;5.354;2022-08-03T05:48:13;6.25;;;3.00;;
41921;SDS011;27609;51.002;5.354;2022-08-03T05:50:39;4.20;;;2.63;;
41921;SDS011;27609;51.002;5.354;2022-08-03T05:53:05;5.18;;;3.28;;
41921;SDS011;27609;51.002;5.354;2022-08-03T05:55:31;7.15;;;2.65;;
41921;SDS011;27609;51.002;5.354;2022-08-03T05:57:56;6.18;;;2.65;;
41921;SDS011;27609;51.002;5.354;2022-08-03T06:00:22;4.53;;;2.47;;
41921;SDS011;27609;51.002;5.354;2022-08-03T06:02:48;3.92;;;2.60;;
41921;SDS011;27609;51.002;5.354;2022-08-03T06:05:13;5.90;;;2.15;;
41921;SDS011;27609;51.002;5.354;2022-08-03T06:07:39;4.68;;;2.05;;
41921;SDS011;27609;51.002;5.354;2022-08-03T06:10:05;7.07;;;1.90;;
41921;SDS011;27609;51.002;5.354;2022-08-03T06:12:33;8.60;;;2.30;;
41921;SDS011;27609;51.002;5.354;2022-08-03T06:15:05;5.53;;;1.90;;
41921;SDS011;27609;51.002;5.354;2022-08-03T06:17:31;3.60;;;1.40;;
41921;SDS011;27609;51.002;5.354;2022-08-03T06:19:57;7.88;;;1.75;;
41921;SDS011;27609;51.002;5.354;2022-08-03T06:22:22;4.18;;;1.73;;
41921;SDS011;27609;51.002;5.354;2022-08-03T06:24:48;3.22;;;1.50;;
41921;SDS011;27609;51.002;5.354;2022-08-03T06:27:14;5.03;;;1.80;;
41921;SDS011;27609;51.002;5.354;2022-08-03T06:29:39;2.78;;;1.67;;
41921;SDS011;27609;51.002;5.354;2022-08-03T06:32:05;2.75;;;1.42;;
41921;SDS011;27609;51.002;5.354;2022-08-03T06:34:31;5.93;;;1.60;;
41921;SDS011;27609;51.002;5.354;2022-08-03T06:36:56;7.10;;;2.25;;
41921;SDS011;27609;51.002;5.354;2022-08-03T06:39:22;4.78;;;1.52;;
41921;SDS011;27609;51.002;5.354;2022-08-03T06:41:48;2.30;;;1.52;;
41921;SDS011;27609;51.002;5.354;2022-08-03T06:44:14;4.25;;;1.52;;
41921;SDS011;27609;51.002;5.354;2022-08-03T06:46:39;4.65;;;1.23;;
41921;SDS011;27609;51.002;5.354;2022-08-03T06:49:08;4.25;;;1.70;;
41921;SDS011;27609;51.002;5.354;2022-08-03T06:51:33;3.92;;;1.50;;
41921;SDS011;27609;51.002;5.354;2022-08-03T06:53:59;5.32;;;1.35;;
41921;SDS011;27609;51.002;5.354;2022-08-03T06:56:24;5.13;;;1.40;;
41921;SDS011;27609;51.002;5.354;2022-08-03T06:58:50;5.45;;;1.15;;
41921;SDS011;27609;51.002;5.354;2022-08-03T07:01:16;5.63;;;1.60;;
41921;SDS011;27609;51.002;5.354;2022-08-03T07:03:41;3.95;;;1.25;;
41921;SDS011;27609;51.002;5.354;2022-08-03T07:06:07;4.57;;;1.30;;
41921;SDS011;27609;51.002;5.354;2022-08-03T07:08:33;3.70;;;1.05;;
41921;SDS011;27609;51.002;5.354;2022-08-03T07:10:58;6.07;;;1.45;;
41921;SDS011;27609;51.002;5.354;2022-08-03T07:13:24;3.15;;;0.90;;
41921;SDS011;27609;51.002;5.354;2022-08-03T07:15:49;4.30;;;1.60;;
41921;SDS011;27609;51.002;5.354;2022-08-03T07:18:15;5.32;;;1.38;;
41921;SDS011;27609;51.002;5.354;2022-08-03T07:20:41;3.90;;;1.42;;
41921;SDS011;27609;51.002;5.354;2022-08-03T07:23:06;4.18;;;1.25;;
41921;SDS011;27609;51.002;5.354;2022-08-03T07:25:33;4.32;;;1.20;;
41921;SDS011;27609;51.002;5.354;2022-08-03T07:27:59;5.13;;;1.50;;
41921;SDS011;27609;51.002;5.354;2022-08-03T07:30:25;2.70;;;1.10;;
41921;SDS011;27609;51.002;5.354;2022-08-03T07:32:52;8.38;;;1.35;;
41921;SDS011;27609;51.002;5.354;2022-08-03T07:35:17;6.25;;;1.30;;
41921;SDS011;27609;51.002;5.354;2022-08-03T07:37:43;4.38;;;1.20;;
41921;SDS011;27609;51.002;5.354;2022-08-03T07:40:09;1.55;;;0.98;;
41921;SDS011;27609;51.002;5.354;2022-08-03T07:42:35;4.97;;;1.02;;
41921;SDS011;27609;51.002;5.354;2022-08-03T07:45:01;4.70;;;1.25;;
41921;SDS011;27609;51.002;5.354;2022-08-03T07:47:28;3.53;;;1.15;;
41921;SDS011;27609;51.002;5.354;2022-08-03T07:49:55;3.78;;;1.10;;
41921;SDS011;27609;51.002;5.354;2022-08-03T07:52:22;3.15;;;0.98;;
41921;SDS011;27609;51.002;5.354;2022-08-03T07:55:06;2.15;;;1.08;;
41921;SDS011;27609;51.002;5.354;2022-08-03T07:57:33;4.93;;;0.95;;
41921;SDS011;27609;51.002;5.354;2022-08-03T07:59:58;3.25;;;0.90;;
41921;SDS011;27609;51.002;5.354;2022-08-03T08:02:24;5.75;;;1.10;;
41921;SDS011;27609;51.002;5.354;2022-08-03T08:04:50;2.78;;;1.00;;
41921;SDS011;27609;51.002;5.354;2022-08-03T08:07:16;2.10;;;1.05;;
41921;SDS011;27609;51.002;5.354;2022-08-03T08:09:41;4.65;;;0.85;;
41921;SDS011;27609;51.002;5.354;2022-08-03T08:12:07;1.70;;;0.70;;
41921;SDS011;27609;51.002;5.354;2022-08-03T08:14:34;2.53;;;0.93;;
41921;SDS011;27609;51.002;5.354;2022-08-03T08:17:00;1.83;;;0.90;;
41921;SDS011;27609;51.002;5.354;2022-08-03T08:19:26;9.60;;;1.23;;
41921;SDS011;27609;51.002;5.354;2022-08-03T08:21:51;2.60;;;0.73;;
41921;SDS011;27609;51.002;5.354;2022-08-03T08:24:17;3.75;;;1.15;;
41921;SDS011;27609;51.002;5.354;2022-08-03T08:26:42;3.00;;;0.93;;
41921;SDS011;27609;51.002;5.354;2022-08-03T08:29:08;3.25;;;1.10;;
41921;SDS011;27609;51.002;5.354;2022-08-03T08:31:34;3.42;;;0.90;;
41921;SDS011;27609;51.002;5.354;2022-08-03T08:34:00;4.18;;;0.80;;
41921;SDS011;27609;51.002;5.354;2022-08-03T08:36:30;3.78;;;1.00;;
41921;SDS011;27609;51.002;5.354;2022-08-03T08:38:56;1.98;;;1.10;;
41921;SDS011;27609;51.002;5.354;2022-08-03T08:41:22;1.90;;;0.90;;
41921;SDS011;27609;51.002;5.354;2022-08-03T08:43:48;7.75;;;1.50;;
41921;SDS011;27609;51.002;5.354;2022-08-03T08:46:14;7.25;;;0.70;;
41921;SDS011;27609;51.002;5.354;2022-08-03T08:48:40;2.83;;;0.90;;
41921;SDS011;27609;51.002;5.354;2022-08-03T08:51:08;3.97;;;1.13;;
41921;SDS011;27609;51.002;5.354;2022-08-03T08:53:35;5.50;;;0.98;;
41921;SDS011;27609;51.002;5.354;2022-08-03T08:56:02;6.47;;;1.30;;
41921;SDS011;27609;51.002;5.354;2022-08-03T08:58:29;4.32;;;1.10;;
41921;SDS011;27609;51.002;5.354;2022-08-03T09:01:01;5.28;;;1.05;;
41921;SDS011;27609;51.002;5.354;2022-08-03T09:03:28;3.60;;;0.77;;
41921;SDS011;27609;51.002;5.354;2022-08-03T09:05:53;7.57;;;1.63;;
41921;SDS011;27609;51.002;5.354;2022-08-03T09:08:20;5.05;;;1.35;;
41921;SDS011;27609;51.002;5.354;2022-08-03T09:10:47;6.13;;;1.13;;
41921;SDS011;27609;51.002;5.354;2022-08-03T09:13:12;5.28;;;1.23;;
41921;SDS011;27609;51.002;5.354;2022-08-03T09:15:38;7.30;;;1.02;;
41921;SDS011;27609;51.002;5.354;2022-08-03T09:18:06;8.27;;;1.48;;
41921;SDS011;27609;51.002;5.354;2022-08-03T09:20:33;2.22;;;1.08;;
41921;SDS011;27609;51.002;5.354;2022-08-03T09:23:01;14.48;;;1.95;;
41921;SDS011;27609;51.002;5.354;2022-08-03T09:25:33;3.72;;;1.50;;
41921;SDS011;27609;51.002;5.354;2022-08-03T09:28:13;3.47;;;1.42;;
41921;SDS011;27609;51.002;5.354;2022-08-03T09:30:41;3.67;;;1.30;;
41921;SDS011;27609;51.002;5.354;2022-08-03T09:33:09;6.18;;;1.80;;
41921;SDS011;27609;51.002;5.354;2022-08-03T09:35:42;4.25;;;1.25;;
41921;SDS011;27609;51.002;5.354;2022-08-03T09:38:11;2.42;;;0.80;;
41921;SDS011;27609;51.002;5.354;2022-08-03T09:40:42;7.97;;;0.90;;
41921;SDS011;27609;51.002;5.354;2022-08-03T09:43:08;3.10;;;1.00;;
41921;SDS011;27609;51.002;5.354;2022-08-03T09:45:38;2.10;;;1.00;;
41921;SDS011;27609;51.002;5.354;2022-08-03T09:48:23;3.70;;;1.02;;
41921;SDS011;27609;51.002;5.354;2022-08-03T09:50:53;3.50;;;1.10;;
41921;SDS011;27609;51.002;5.354;2022-08-03T09:53:23;4.60;;;0.80;;
41921;SDS011;27609;51.002;5.354;2022-08-03T09:58:24;2.50;;;0.90;;
41921;SDS011;27609;51.002;5.354;2022-08-03T10:03:25;5.82;;;1.23;;
41921;SDS011;27609;51.002;5.354;2022-08-03T10:05:52;3.60;;;0.90;;
41921;SDS011;27609;51.002;5.354;2022-08-03T10:08:19;1.98;;;0.93;;
41921;SDS011;27609;51.002;5.354;2022-08-03T10:10:46;4.32;;;0.93;;
41921;SDS011;27609;51.002;5.354;2022-08-03T10:13:14;2.63;;;1.02;;
41921;SDS011;27609;51.002;5.354;2022-08-03T10:15:42;4.50;;;1.05;;
41921;SDS011;27609;51.002;5.354;2022-08-03T10:18:10;3.38;;;0.70;;
41921;SDS011;27609;51.002;5.354;2022-08-03T10:20:37;2.28;;;0.70;;
41921;SDS011;27609;51.002;5.354;2022-08-03T10:23:15;3.85;;;0.93;;
41921;SDS011;27609;51.002;5.354;2022-08-03T10:25:42;3.88;;;0.90;;
41921;SDS011;27609;51.002;5.354;2022-08-03T10:28:15;1.58;;;0.70;;
41921;SDS011;27609;51.002;5.354;2022-08-03T10:30:47;2.65;;;0.70;;
41921;SDS011;27609;51.002;5.354;2022-08-03T10:33:21;2.40;;;0.70;;
41921;SDS011;27609;51.002;5.354;2022-08-03T10:35:51;1.58;;;0.98;;
41921;SDS011;27609;51.002;5.354;2022-08-03T10:38:21;2.38;;;0.88;;
41921;SDS011;27609;51.002;5.354;2022-08-03T10:40:53;2.65;;;0.90;;
41921;SDS011;27609;51.002;5.354;2022-08-03T10:43:21;2.13;;;0.77;;
41921;SDS011;27609;51.002;5.354;2022-08-03T10:45:51;2.83;;;0.85;;
41921;SDS011;27609;51.002;5.354;2022-08-03T10:48:17;4.18;;;0.80;;
41921;SDS011;27609;51.002;5.354;2022-08-03T10:50:44;3.67;;;0.73;;
41921;SDS011;27609;51.002;5.354;2022-08-03T10:53:12;4.73;;;0.70;;
41921;SDS011;27609;51.002;5.354;2022-08-03T10:55:41;7.38;;;1.05;;
41921;SDS011;27609;51.002;5.354;2022-08-03T11:01:03;1.75;;;0.95;;
41921;SDS011;27609;51.002;5.354;2022-08-03T11:03:29;3.15;;;0.85;;
41921;SDS011;27609;51.002;5.354;2022-08-03T11:08:44;7.80;;;1.27;;
41921;SDS011;27609;51.002;5.354;2022-08-03T11:16:35;1.98;;;0.80;;
41921;SDS011;27609;51.002;5.354;2022-08-03T11:19:06;3.63;;;1.30;;
41921;SDS011;27609;51.002;5.354;2022-08-03T11:35:15;3.55;;;0.90;;
41921;SDS011;27609;51.002;5.354;2022-08-03T11:40:34;6.35;;;0.82;;
41921;SDS011;27609;51.002;5.354;2022-08-03T11:43:00;2.40;;;0.85;;
41921;SDS011;27609;51.002;5.354;2022-08-03T11:45:26;3.10;;;0.82;;
41921;SDS011;27609;51.002;5.354;2022-08-03T11:47:53;2.95;;;1.02;;
41921;SDS011;27609;51.002;5.354;2022-08-03T11:50:19;1.65;;;0.80;;
41921;SDS011;27609;51.002;5.354;2022-08-03T11:52:46;3.22;;;0.90;;
41921;SDS011;27609;51.002;5.354;2022-08-03T11:55:14;3.35;;;0.82;;
41921;SDS011;27609;51.002;5.354;2022-08-03T11:57:42;0.80;;;0.80;;
41921;SDS011;27609;51.002;5.354;2022-08-03T12:03:05;8.10;;;1.00;;
41921;SDS011;27609;51.002;5.354;2022-08-03T12:05:33;1.13;;;0.80;;
41921;SDS011;27609;51.002;5.354;2022-08-03T12:08:13;2.47;;;0.77;;
41921;SDS011;27609;51.002;5.354;2022-08-03T12:10:44;2.53;;;0.85;;
41921;SDS011;27609;51.002;5.354;2022-08-03T12:13:15;3.63;;;0.70;;
41921;SDS011;27609;51.002;5.354;2022-08-03T12:15:41;5.32;;;0.93;;
41921;SDS011;27609;51.002;5.354;2022-08-03T12:18:14;2.33;;;0.82;;
41921;SDS011;27609;51.002;5.354;2022-08-03T12:20:42;3.00;;;0.70;;
41921;SDS011;27609;51.002;5.354;2022-08-03T12:23:08;2.45;;;1.20;;
41921;SDS011;27609;51.002;5.354;2022-08-03T12:25:35;0.85;;;0.70;;
41921;SDS011;27609;51.002;5.354;2022-08-03T12:28:20;3.65;;;1.10;;
41921;SDS011;27609;51.002;5.354;2022-08-03T12:30:49;2.95;;;1.00;;
41921;SDS011;27609;51.002;5.354;2022-08-03T12:33:22;4.22;;;1.08;;
41921;SDS011;27609;51.002;5.354;2022-08-03T12:36:00;4.43;;;1.20;;
41921;SDS011;27609;51.002;5.354;2022-08-03T12:38:35;2.10;;;0.73;;
41921;SDS011;27609;51.002;5.354;2022-08-03T12:41:06;3.95;;;1.10;;
41921;SDS011;27609;51.002;5.354;2022-08-03T12:43:45;1.48;;;0.60;;
41921;SDS011;27609;51.002;5.354;2022-08-03T12:46:14;2.17;;;0.80;;
41921;SDS011;27609;51.002;5.354;2022-08-03T12:51:26;2.40;;;1.10;;
41921;SDS011;27609;51.002;5.354;2022-08-03T12:53:53;3.45;;;1.02;;
41921;SDS011;27609;51.002;5.354;2022-08-03T12:56:20;1.30;;;0.85;;
41921;SDS011;27609;51.002;5.354;2022-08-03T12:58:46;3.08;;;0.85;;
41921;SDS011;27609;51.002;5.354;2022-08-03T13:01:11;2.60;;;0.77;;
41921;SDS011;27609;51.002;5.354;2022-08-03T13:03:40;3.70;;;0.90;;
41921;SDS011;27609;51.002;5.354;2022-08-03T13:06:13;1.10;;;1.00;;
41921;SDS011;27609;51.002;5.354;2022-08-03T13:08:40;1.60;;;1.00;;
41921;SDS011;27609;51.002;5.354;2022-08-03T13:11:25;7.65;;;1.08;;
41921;SDS011;27609;51.002;5.354;2022-08-03T13:13:52;2.85;;;0.95;;
41921;SDS011;27609;51.002;5.354;2022-08-03T13:16:19;3.60;;;0.70;;
41921;SDS011;27609;51.002;5.354;2022-08-03T13:18:48;2.25;;;0.63;;
41921;SDS011;27609;51.002;5.354;2022-08-03T13:21:16;4.38;;;0.77;;
41921;SDS011;27609;51.002;5.354;2022-08-03T13:23:43;1.30;;;0.80;;
41921;SDS011;27609;51.002;5.354;2022-08-03T13:26:09;3.17;;;0.80;;
41921;SDS011;27609;51.002;5.354;2022-08-03T13:28:36;1.85;;;1.02;;
41921;SDS011;27609;51.002;5.354;2022-08-03T13:31:02;1.98;;;0.98;;
41921;SDS011;27609;51.002;5.354;2022-08-03T13:33:28;4.40;;;1.10;;
41921;SDS011;27609;51.002;5.354;2022-08-03T13:35:53;3.35;;;0.75;;
41921;SDS011;27609;51.002;5.354;2022-08-03T13:38:20;3.95;;;1.13;;
41921;SDS011;27609;51.002;5.354;2022-08-03T13:40:45;1.88;;;0.88;;
41921;SDS011;27609;51.002;5.354;2022-08-03T13:43:11;1.92;;;0.70;;
41921;SDS011;27609;51.002;5.354;2022-08-03T13:45:37;2.30;;;1.00;;
41921;SDS011;27609;51.002;5.354;2022-08-03T13:48:03;2.20;;;1.00;;
41921;SDS011;27609;51.002;5.354;2022-08-03T13:50:29;4.22;;;0.77;;
41921;SDS011;27609;51.002;5.354;2022-08-03T13:52:57;3.10;;;0.73;;
41921;SDS011;27609;51.002;5.354;2022-08-03T13:55:23;3.55;;;0.68;;
41921;SDS011;27609;51.002;5.354;2022-08-03T13:57:49;1.60;;;0.60;;
41921;SDS011;27609;51.002;5.354;2022-08-03T14:00:15;3.67;;;1.00;;
41921;SDS011;27609;51.002;5.354;2022-08-03T14:02:42;0.75;;;0.68;;
41921;SDS011;27609;51.002;5.354;2022-08-03T14:05:08;3.20;;;0.85;;
41921;SDS011;27609;51.002;5.354;2022-08-03T14:07:33;2.10;;;0.90;;
41921;SDS011;27609;51.002;5.354;2022-08-03T14:09:59;3.17;;;0.90;;
41921;SDS011;27609;51.002;5.354;2022-08-03T14:12:26;1.75;;;0.80;;
41921;SDS011;27609;51.002;5.354;2022-08-03T14:14:52;1.80;;;0.82;;
41921;SDS011;27609;51.002;5.354;2022-08-03T14:17:17;4.22;;;0.90;;
41921;SDS011;27609;51.002;5.354;2022-08-03T14:19:43;2.85;;;0.65;;
41921;SDS011;27609;51.002;5.354;2022-08-03T14:22:09;0.80;;;0.68;;
41921;SDS011;27609;51.002;5.354;2022-08-03T14:24:36;2.13;;;0.80;;
41921;SDS011;27609;51.002;5.354;2022-08-03T14:27:01;4.18;;;1.20;;
41921;SDS011;27609;51.002;5.354;2022-08-03T14:29:27;2.53;;;0.85;;
41921;SDS011;27609;51.002;5.354;2022-08-03T14:31:52;4.72;;;0.75;;
41921;SDS011;27609;51.002;5.354;2022-08-03T14:34:18;1.80;;;0.88;;
41921;SDS011;27609;51.002;5.354;2022-08-03T14:36:44;1.02;;;0.70;;
41921;SDS011;27609;51.002;5.354;2022-08-03T14:39:11;3.15;;;1.00;;
41921;SDS011;27609;51.002;5.354;2022-08-03T14:41:37;2.15;;;0.93;;
41921;SDS011;27609;51.002;5.354;2022-08-03T14:44:03;2.72;;;1.08;;
41921;SDS011;27609;51.002;5.354;2022-08-03T14:46:29;5.40;;;0.88;;
41921;SDS011;27609;51.002;5.354;2022-08-03T14:48:55;1.67;;;0.43;;
41921;SDS011;27609;51.002;5.354;2022-08-03T14:51:21;3.40;;;0.63;;
41921;SDS011;27609;51.002;5.354;2022-08-03T14:53:46;2.13;;;0.73;;
41921;SDS011;27609;51.002;5.354;2022-08-03T14:56:12;3.78;;;0.90;;
41921;SDS011;27609;51.002;5.354;2022-08-03T14:58:38;2.88;;;0.73;;
41921;SDS011;27609;51.002;5.354;2022-08-03T15:01:03;2.40;;;0.70;;
41921;SDS011;27609;51.002;5.354;2022-08-03T15:03:31;4.57;;;0.88;;
41921;SDS011;27609;51.002;5.354;2022-08-03T15:05:57;3.03;;;0.80;;
41921;SDS011;27609;51.002;5.354;2022-08-03T15:08:23;1.85;;;0.98;;
41921;SDS011;27609;51.002;5.354;2022-08-03T15:10:49;0.73;;;0.70;;
41921;SDS011;27609;51.002;5.354;2022-08-03T15:13:15;5.57;;;0.70;;
41921;SDS011;27609;51.002;5.354;2022-08-03T15:15:42;2.63;;;0.80;;
41921;SDS011;27609;51.002;5.354;2022-08-03T15:18:07;5.20;;;0.80;;
41921;SDS011;27609;51.002;5.354;2022-08-03T15:20:33;4.82;;;1.10;;
41921;SDS011;27609;51.002;5.354;2022-08-03T15:22:59;2.85;;;1.10;;
41921;SDS011;27609;51.002;5.354;2022-08-03T15:25:29;3.10;;;1.00;;
41921;SDS011;27609;51.002;5.354;2022-08-03T15:27:58;2.20;;;0.80;;
41921;SDS011;27609;51.002;5.354;2022-08-03T15:30:23;1.52;;;0.73;;
41921;SDS011;27609;51.002;5.354;2022-08-03T15:32:49;1.60;;;0.65;;
41921;SDS011;27609;51.002;5.354;2022-08-03T15:35:15;3.35;;;1.00;;
41921;SDS011;27609;51.002;5.354;2022-08-03T15:37:43;1.98;;;0.77;;
41921;SDS011;27609;51.002;5.354;2022-08-03T15:40:09;0.70;;;0.60;;
41921;SDS011;27609;51.002;5.354;2022-08-03T15:42:35;3.00;;;1.00;;
41921;SDS011;27609;51.002;5.354;2022-08-03T15:45:01;1.52;;;0.88;;
41921;SDS011;27609;51.002;5.354;2022-08-03T15:47:26;2.50;;;0.90;;
41921;SDS011;27609;51.002;5.354;2022-08-03T15:49:53;1.40;;;0.93;;